Kezdőlap
METAR-TAF:

METAR-TAF

Repülőterek :

Oslo, Norvégia

földrajzi szélesség: 60-12N, földrajzi hosszúság: 011-05E, magasság: 208 m

Jelenlegi meteorológiai megfigyelések

A jelentés 25 perccel ezelõtt készült, 03:20 UTC
Nyugat-északnyugati szél 7 kt, délnyugati és északi között változik
Hőmérséklet 0°C
Páratartalom 69%
Légköri nyomás 991 hPa
Látótávolság 10 km, vagy több
felhőtlen 1500 m magasságban, és nincs gomolyfelhõ

METAR: ENGM 100320Z 29007KT 220V360 CAVOK 00/M05 Q0991

Idő: 04:45 (03:45 UTC)

Előrejelzés

Az előrejelzés 10-én 00 óra UTC és 10-én 24 óra UTC között érvényes
Északnyugati szél 8 kt
Látótávolság 10 km, vagy több
felhőtlen 1500 m magasságban, és nincs gomolyfelhõ
10-én 09 óra UTC és 10-én 24 óra UTC között ideiglenes
Északi szél 20 kt széllökések: 35 kt

TAF: ENGM 1000/1024 32008KT CAVOK TEMPO 1009/1024 35020G35KT

Meteorológiai megfigyelések és előrejelzések több, mint 4000 repülőtéren (METAR és TAF jelentéseket).

A térképen piros és sárga pontok jelzik az elérhető meteorológiai állomásokat.

Mozgassa az egeret a pont fölött, hogy megjelenjen az állomás neve.

Azután kattintson az időjárási megfigyelések és előrejelzések megtekintéséhez.

A térkép megváltoztatása: kattintson a fekete keresztel jelölt zöld gombra ráközelítéshez, a vonallal jelölt zöld gombra távolításhoz, vagy a zöld nyilakra a szomszédos térképek eléréséhez.


METAR-TAF: